Time;durP1;ratioP1;P1;durP2;ratioP2;P2;SDS_P1;SDS_P2;PMS_P1;PMS_P2;Temp;Humidity;BMP_temperature;BMP_pressure;BME280_temperature;BME280_humidity;BME280_pressure;Samples;Min_cycle;Max_cycle;Signal;HPM_P1;HPM_P2
2023/07/13 00:00:34;;;;;;;5.15;2.20;;;;;;;;;;4977985;28;20061;-86
2023/07/13 00:03:02;;;;;;;5.32;2.55;;;;;;;;;;4960924;28;20053;-87
2023/07/13 00:05:28;;;;;;;5.78;2.50;;;;;;;;;;4978589;28;20045;-86
2023/07/13 00:07:54;;;;;;;7.50;2.08;;;;;;;;;;4961392;28;20045;-86
2023/07/13 00:10:21;;;;;;;5.05;2.40;;;;;;;;;;4966274;28;20045;-86
2023/07/13 00:12:47;;;;;;;9.52;2.17;;;;;;;;;;4981807;28;20037;-86
2023/07/13 00:15:20;;;;;;;10.52;2.53;;;;;;;;;;4963819;28;20151;-86
2023/07/13 00:17:47;;;;;;;7.65;2.30;;;;;;;;;;4969515;28;20026;-86
2023/07/13 00:20:13;;;;;;;7.95;2.42;;;;;;;;;;4963632;28;20077;-86
2023/07/13 00:22:39;;;;;;;7.68;2.58;;;;;;;;;;4970547;28;20041;-86
2023/07/13 00:25:05;;;;;;;8.15;2.20;;;;;;;;;;4979839;28;20061;-86
2023/07/13 00:27:31;;;;;;;9.55;2.60;;;;;;;;;;4971371;28;20041;-86
2023/07/13 00:29:58;;;;;;;7.80;2.40;;;;;;;;;;4955161;28;20044;-85
2023/07/13 00:32:27;;;;;;;9.40;2.70;;;;;;;;;;4962686;28;20379;-86
2023/07/13 00:34:57;;;;;;;7.97;2.75;;;;;;;;;;4966088;28;20129;-86
2023/07/13 00:37:23;;;;;;;7.07;2.40;;;;;;;;;;4981831;28;20073;-86
2023/07/13 00:39:49;;;;;;;8.07;2.67;;;;;;;;;;4964559;28;20069;-86
2023/07/13 00:42:15;;;;;;;8.98;2.50;;;;;;;;;;4957553;28;20053;-86
2023/07/13 00:44:41;;;;;;;8.63;2.53;;;;;;;;;;4978782;28;20042;-86
2023/07/13 00:47:07;;;;;;;8.95;2.30;;;;;;;;;;4960986;28;20080;-86
2023/07/13 00:49:34;;;;;;;9.77;3.40;;;;;;;;;;4969087;28;20046;-86
2023/07/13 00:52:02;;;;;;;9.25;2.70;;;;;;;;;;4966997;28;20037;-86
2023/07/13 00:54:28;;;;;;;;;;;;;;;;;;4970413;28;20171;-86
2023/07/13 00:56:58;;;;;;;8.43;2.75;;;;;;;;;;5017003;28;20393;-85
2023/07/13 00:59:24;;;;;;;7.68;2.40;;;;;;;;;;4974669;28;20038;-86
2023/07/13 01:01:57;;;;;;;10.38;3.10;;;;;;;;;;4970493;28;20530;-87
2023/07/13 01:04:24;;;;;;;8.27;2.42;;;;;;;;;;4973587;28;20034;-86
2023/07/13 01:06:50;;;;;;;9.55;3.05;;;;;;;;;;4969882;28;20411;-86
2023/07/13 01:09:17;;;;;;;7.25;2.90;;;;;;;;;;4965262;28;20152;-86
2023/07/13 01:11:44;;;;;;;10.13;3.00;;;;;;;;;;4970708;28;20085;-86
2023/07/13 01:14:14;;;;;;;9.35;2.65;;;;;;;;;;4960906;28;20774;-86
2023/07/13 01:16:41;;;;;;;4.90;2.30;;;;;;;;;;4969260;28;20118;-86
2023/07/13 01:19:29;;;;;;;5.18;2.38;;;;;;;;;;4960159;28;20029;-86
2023/07/13 01:21:56;;;;;;;8.52;2.70;;;;;;;;;;4998727;28;20079;-86
2023/07/13 01:24:22;;;;;;;7.50;2.97;;;;;;;;;;4982616;28;20050;-86
2023/07/13 01:26:48;;;;;;;10.13;2.80;;;;;;;;;;4965672;28;20045;-87
2023/07/13 01:29:14;;;;;;;5.43;2.78;;;;;;;;;;4980468;28;20048;-87
2023/07/13 01:31:40;;;;;;;8.73;2.78;;;;;;;;;;4981956;28;20503;-86
2023/07/13 01:34:06;;;;;;;7.90;2.80;;;;;;;;;;4977705;28;20412;-86
2023/07/13 01:36:33;;;;;;;10.20;2.53;;;;;;;;;;4998397;28;20042;-86
2023/07/13 01:38:59;;;;;;;6.88;2.83;;;;;;;;;;4965183;28;20168;-85
2023/07/13 01:41:25;;;;;;;7.97;2.63;;;;;;;;;;4970920;28;20040;-86
2023/07/13 01:43:51;;;;;;;6.65;2.72;;;;;;;;;;4982693;28;20393;-86
2023/07/13 01:46:17;;;;;;;8.18;3.00;;;;;;;;;;4961116;28;20042;-86
2023/07/13 01:48:43;;;;;;;8.27;2.65;;;;;;;;;;4980699;28;20095;-86
2023/07/13 01:51:09;;;;;;;5.65;2.65;;;;;;;;;;4980429;28;20038;-86
2023/07/13 01:53:35;;;;;;;8.32;3.00;;;;;;;;;;4984815;28;20065;-86
2023/07/13 01:56:01;;;;;;;9.85;2.80;;;;;;;;;;4976721;28;20033;-86
2023/07/13 01:58:27;;;;;;;10.00;3.38;;;;;;;;;;4965229;28;20100;-87
2023/07/13 02:00:53;;;;;;;12.95;3.00;;;;;;;;;;4962414;28;20073;-86
2023/07/13 02:03:19;;;;;;;6.72;2.47;;;;;;;;;;4979359;28;20155;-87
2023/07/13 02:05:45;;;;;;;9.90;3.40;;;;;;;;;;4967172;28;20045;-86
2023/07/13 02:08:12;;;;;;;9.23;3.00;;;;;;;;;;4977602;28;20041;-86
2023/07/13 02:10:38;;;;;;;11.90;2.95;;;;;;;;;;4964368;28;20046;-86
2023/07/13 02:13:07;;;;;;;9.70;3.47;;;;;;;;;;4961751;28;20034;-86
2023/07/13 02:15:33;;;;;;;10.00;3.45;;;;;;;;;;4961937;28;20424;-86
2023/07/13 02:17:59;;;;;;;13.27;2.85;;;;;;;;;;4960065;28;20048;-86
2023/07/13 02:20:26;;;;;;;10.20;3.05;;;;;;;;;;4995446;28;20096;-86
2023/07/13 02:22:52;;;;;;;10.23;3.15;;;;;;;;;;4977257;28;20049;-86
2023/07/13 02:25:18;;;;;;;11.23;3.30;;;;;;;;;;4963955;28;20037;-86
2023/07/13 02:27:44;;;;;;;13.63;3.15;;;;;;;;;;4972003;28;20043;-86
2023/07/13 02:30:11;;;;;;;14.73;2.90;;;;;;;;;;4966151;28;20078;-86
2023/07/13 02:32:37;;;;;;;9.68;3.55;;;;;;;;;;4967341;28;20038;-85
2023/07/13 02:35:03;;;;;;;7.15;2.78;;;;;;;;;;4957273;28;20048;-86
2023/07/13 02:37:29;;;;;;;10.57;3.00;;;;;;;;;;4982057;28;20808;-85
2023/07/13 02:39:56;;;;;;;13.35;3.22;;;;;;;;;;4978442;28;20060;-85
2023/07/13 02:42:22;;;;;;;8.52;3.03;;;;;;;;;;4994874;28;21812;-86
2023/07/13 02:44:49;;;;;;;11.27;3.88;;;;;;;;;;4965517;28;20048;-86
2023/07/13 02:47:15;;;;;;;10.57;3.30;;;;;;;;;;4991988;28;20138;-86
2023/07/13 02:49:41;;;;;;;8.02;2.97;;;;;;;;;;4964043;28;20045;-86
2023/07/13 02:52:07;;;;;;;12.65;2.95;;;;;;;;;;4977457;28;20069;-86
2023/07/13 02:54:35;;;;;;;7.32;2.50;;;;;;;;;;4998055;28;21014;-86
2023/07/13 02:57:02;;;;;;;9.43;2.60;;;;;;;;;;4986016;28;20036;-86
2023/07/13 02:59:28;;;;;;;7.60;3.05;;;;;;;;;;4964566;28;20454;-85
2023/07/13 03:01:56;;;;;;;11.23;2.78;;;;;;;;;;4972533;28;20050;-86
2023/07/13 03:04:22;;;;;;;8.93;3.20;;;;;;;;;;4958522;28;20069;-86
2023/07/13 03:06:48;;;;;;;12.88;3.50;;;;;;;;;;4959764;28;20507;-86
2023/07/13 03:09:14;;;;;;;12.10;3.22;;;;;;;;;;4969190;28;22099;-86
2023/07/13 03:11:41;;;;;;;13.45;3.00;;;;;;;;;;4956291;28;20516;-86
2023/07/13 03:14:08;;;;;;;12.70;3.13;;;;;;;;;;4969076;28;20072;-86
2023/07/13 03:16:34;;;;;;;9.13;3.00;;;;;;;;;;4957873;28;20048;-87
2023/07/13 03:19:00;;;;;;;8.30;2.88;;;;;;;;;;4986422;28;20366;-86
2023/07/13 03:21:26;;;;;;;9.55;2.88;;;;;;;;;;4992217;28;20073;-86
2023/07/13 03:23:52;;;;;;;13.15;3.33;;;;;;;;;;4960187;28;20053;-86
2023/07/13 03:26:19;;;;;;;14.77;3.47;;;;;;;;;;4952907;28;20497;-86
2023/07/13 03:28:45;;;;;;;7.25;2.97;;;;;;;;;;4954441;28;20044;-86
2023/07/13 03:31:12;;;;;;;13.48;3.47;;;;;;;;;;4986076;28;20034;-86
2023/07/13 03:33:38;;;;;;;11.73;3.30;;;;;;;;;;4956829;28;20504;-86
2023/07/13 03:36:05;;;;;;;11.52;3.67;;;;;;;;;;4953034;28;20069;-86
2023/07/13 03:38:31;;;;;;;11.30;2.97;;;;;;;;;;4958294;28;20042;-86
2023/07/13 03:40:57;;;;;;;11.77;3.20;;;;;;;;;;4970899;28;20087;-86
2023/07/13 03:43:23;;;;;;;10.52;3.40;;;;;;;;;;4970520;28;20048;-86
2023/07/13 03:45:49;;;;;;;10.88;3.33;;;;;;;;;;4959051;28;20054;-86
2023/07/13 03:48:15;;;;;;;9.48;3.35;;;;;;;;;;4953162;28;20076;-86
2023/07/13 03:50:41;;;;;;;12.40;3.45;;;;;;;;;;4954299;28;20048;-86
2023/07/13 03:53:07;;;;;;;8.40;2.95;;;;;;;;;;4970588;28;20046;-86
2023/07/13 03:55:33;;;;;;;12.07;3.70;;;;;;;;;;4957155;28;20025;-86
2023/07/13 03:58:01;;;;;;;12.77;3.65;;;;;;;;;;4953053;28;20087;-86
2023/07/13 04:00:27;;;;;;;12.70;2.93;;;;;;;;;;4955705;28;20089;-86
2023/07/13 04:02:56;;;;;;;13.00;3.78;;;;;;;;;;4955286;28;20054;-86
2023/07/13 04:05:22;;;;;;;8.13;2.97;;;;;;;;;;4983155;28;20387;-86
2023/07/13 04:07:48;;;;;;;14.25;3.42;;;;;;;;;;4992233;28;20042;-86
2023/07/13 04:10:14;;;;;;;17.88;4.03;;;;;;;;;;4971636;28;20042;-85
2023/07/13 04:12:40;;;;;;;11.35;3.78;;;;;;;;;;4971868;28;20093;-86
2023/07/13 04:15:06;;;;;;;13.75;3.92;;;;;;;;;;4964960;28;20045;-86
2023/07/13 04:17:32;;;;;;;13.77;4.20;;;;;;;;;;4972320;28;20053;-85
2023/07/13 04:19:58;;;;;;;12.20;3.70;;;;;;;;;;4968861;28;20046;-86
2023/07/13 04:22:24;;;;;;;13.02;3.85;;;;;;;;;;4973009;28;20156;-86
2023/07/13 04:24:50;;;;;;;16.20;4.65;;;;;;;;;;4958328;28;20180;-85
2023/07/13 04:27:16;;;;;;;11.68;4.03;;;;;;;;;;4944449;28;20057;-85
2023/07/13 04:29:42;;;;;;;14.43;4.38;;;;;;;;;;4957294;28;20072;-86
2023/07/13 04:32:09;;;;;;;11.68;3.97;;;;;;;;;;4956345;28;20129;-86
2023/07/13 04:34:35;;;;;;;9.73;4.10;;;;;;;;;;4974327;28;20053;-86
2023/07/13 04:37:01;;;;;;;16.55;4.25;;;;;;;;;;4971460;28;20045;-86
2023/07/13 04:39:27;;;;;;;9.25;4.00;;;;;;;;;;4993874;28;20041;-86
2023/07/13 04:41:56;;;;;;;12.02;4.10;;;;;;;;;;4989161;28;20104;-86
2023/07/13 04:44:22;;;;;;;10.30;3.67;;;;;;;;;;4973273;28;20065;-85
2023/07/13 04:46:48;;;;;;;9.30;3.72;;;;;;;;;;4960381;28;20127;-86
2023/07/13 04:49:14;;;;;;;11.15;4.10;;;;;;;;;;4973981;28;21755;-85
2023/07/13 04:51:40;;;;;;;9.57;3.78;;;;;;;;;;4955885;28;20038;-86
2023/07/13 04:54:07;;;;;;;13.23;4.53;;;;;;;;;;4967407;28;20038;-86
2023/07/13 04:56:33;;;;;;;12.98;3.90;;;;;;;;;;4957631;28;20559;-86
2023/07/13 04:58:59;;;;;;;11.15;4.43;;;;;;;;;;4952426;28;20061;-86
2023/07/13 05:01:28;;;;;;;11.20;4.32;;;;;;;;;;4960576;28;20049;-85
2023/07/13 05:03:59;;;;;;;14.75;4.43;;;;;;;;;;4989917;28;20038;-85
2023/07/13 05:06:25;;;;;;;9.30;4.00;;;;;;;;;;4962448;28;20046;-85
2023/07/13 05:08:51;;;;;;;13.02;4.72;;;;;;;;;;4979187;28;20041;-85
2023/07/13 05:11:18;;;;;;;10.90;4.07;;;;;;;;;;4964598;28;20069;-86
2023/07/13 05:13:44;;;;;;;11.73;4.47;;;;;;;;;;4951094;28;20052;-86
2023/07/13 05:16:10;;;;;;;10.05;4.65;;;;;;;;;;4957777;28;20485;-86
2023/07/13 05:18:36;;;;;;;10.55;4.32;;;;;;;;;;4989476;28;21547;-85
2023/07/13 05:21:03;;;;;;;9.07;3.92;;;;;;;;;;4964796;28;20207;-85
2023/07/13 05:23:30;;;;;;;13.30;4.13;;;;;;;;;;4960454;28;20125;-85
2023/07/13 05:25:56;;;;;;;10.85;4.25;;;;;;;;;;4975046;28;20042;-85
2023/07/13 05:28:22;;;;;;;12.98;3.75;;;;;;;;;;4974677;28;20054;-85
2023/07/13 05:30:49;;;;;;;8.80;3.95;;;;;;;;;;4955005;28;20038;-85
2023/07/13 05:33:15;;;;;;;14.57;4.35;;;;;;;;;;4953742;28;20200;-85
2023/07/13 05:35:41;;;;;;;10.50;4.47;;;;;;;;;;4961874;28;20042;-85
2023/07/13 05:38:07;;;;;;;8.70;4.25;;;;;;;;;;4952175;28;20041;-85
2023/07/13 05:40:33;;;;;;;11.93;3.72;;;;;;;;;;4964980;28;20045;-86
2023/07/13 05:42:59;;;;;;;11.30;4.20;;;;;;;;;;4971670;28;20068;-86
2023/07/13 05:45:25;;;;;;;9.73;4.07;;;;;;;;;;4979634;28;20060;-86
2023/07/13 05:47:52;;;;;;;12.93;5.05;;;;;;;;;;4964761;28;20084;-85
2023/07/13 05:50:18;;;;;;;10.43;4.38;;;;;;;;;;4991176;28;20465;-86
2023/07/13 05:52:44;;;;;;;12.57;4.43;;;;;;;;;;4969863;28;20096;-85
2023/07/13 05:55:10;;;;;;;11.25;4.20;;;;;;;;;;4978731;28;20121;-86
2023/07/13 05:57:36;;;;;;;10.25;4.30;;;;;;;;;;4981009;28;20069;-85
2023/07/13 06:00:02;;;;;;;13.70;5.10;;;;;;;;;;4968623;28;20042;-85
2023/07/13 06:02:28;;;;;;;12.70;4.45;;;;;;;;;;4968535;28;20499;-85
2023/07/13 06:04:54;;;;;;;14.32;4.22;;;;;;;;;;4968678;28;20076;-85
2023/07/13 06:07:20;;;;;;;11.68;4.25;;;;;;;;;;4972543;28;20488;-85
2023/07/13 06:09:46;;;;;;;12.20;4.32;;;;;;;;;;4988583;28;20470;-85
2023/07/13 06:12:12;;;;;;;15.50;5.00;;;;;;;;;;4980982;28;20037;-85
2023/07/13 06:14:38;;;;;;;12.00;4.03;;;;;;;;;;4986145;28;20077;-86
2023/07/13 06:17:05;;;;;;;7.90;3.63;;;;;;;;;;4988021;28;20041;-85
2023/07/13 06:19:31;;;;;;;11.45;4.60;;;;;;;;;;4982612;28;20103;-85
2023/07/13 06:21:58;;;;;;;8.63;3.95;;;;;;;;;;4984445;28;20041;-85
2023/07/13 06:24:24;;;;;;;11.70;4.57;;;;;;;;;;4982949;28;20049;-86
2023/07/13 06:26:50;;;;;;;12.23;4.32;;;;;;;;;;4988898;28;20051;-85
2023/07/13 06:29:16;;;;;;;9.38;3.60;;;;;;;;;;4980800;28;20041;-86
2023/07/13 06:31:43;;;;;;;12.60;5.10;;;;;;;;;;4965740;28;20048;-86
2023/07/13 06:34:09;;;;;;;12.27;4.30;;;;;;;;;;4981546;28;20034;-86
2023/07/13 06:36:36;;;;;;;10.15;3.92;;;;;;;;;;4982458;28;20365;-86
2023/07/13 06:39:02;;;;;;;10.45;4.35;;;;;;;;;;4966209;28;20092;-86
2023/07/13 06:41:28;;;;;;;11.82;4.43;;;;;;;;;;4988091;28;20037;-85
2023/07/13 06:43:54;;;;;;;12.18;4.28;;;;;;;;;;4972134;28;20041;-86
2023/07/13 06:46:21;;;;;;;11.02;3.97;;;;;;;;;;4988582;28;20464;-86
2023/07/13 06:48:47;;;;;;;9.30;4.38;;;;;;;;;;4970446;28;20033;-86
2023/07/13 06:51:14;;;;;;;7.93;3.30;;;;;;;;;;4967430;28;20080;-86
2023/07/13 06:53:40;;;;;;;13.18;3.67;;;;;;;;;;4987901;28;20092;-86
2023/07/13 06:56:06;;;;;;;11.23;3.65;;;;;;;;;;4967429;28;20045;-86
2023/07/13 06:58:34;;;;;;;9.80;3.90;;;;;;;;;;4987250;28;20037;-87
2023/07/13 07:01:00;;;;;;;10.90;3.63;;;;;;;;;;4968416;28;20411;-86
2023/07/13 07:03:26;;;;;;;11.88;4.05;;;;;;;;;;4985739;28;20042;-86
2023/07/13 07:05:52;;;;;;;8.90;3.38;;;;;;;;;;4968289;28;20037;-86
2023/07/13 07:08:18;;;;;;;10.07;3.65;;;;;;;;;;4967697;28;20041;-86
2023/07/13 07:10:45;;;;;;;10.30;4.00;;;;;;;;;;5004068;28;20122;-86
2023/07/13 07:13:11;;;;;;;8.32;3.40;;;;;;;;;;4985297;28;20439;-86
2023/07/13 07:15:37;;;;;;;8.55;3.58;;;;;;;;;;4985056;28;20049;-86
2023/07/13 07:18:03;;;;;;;7.53;3.67;;;;;;;;;;4970067;28;20052;-86
2023/07/13 07:20:30;;;;;;;8.80;3.45;;;;;;;;;;4972285;28;20045;-86
2023/07/13 07:22:56;;;;;;;11.43;4.60;;;;;;;;;;4985743;28;20416;-86
2023/07/13 07:25:22;;;;;;;10.18;3.63;;;;;;;;;;4971250;28;20071;-86
2023/07/13 07:27:48;;;;;;;13.23;3.72;;;;;;;;;;4973248;28;20041;-86
2023/07/13 07:30:15;;;;;;;9.52;3.10;;;;;;;;;;4984457;28;20050;-86
2023/07/13 07:32:41;;;;;;;7.18;2.88;;;;;;;;;;4985755;28;20088;-86
2023/07/13 07:35:07;;;;;;;9.35;3.40;;;;;;;;;;4966402;28;20435;-86
2023/07/13 07:37:34;;;;;;;9.18;3.45;;;;;;;;;;4981205;28;20437;-86
2023/07/13 07:40:00;;;;;;;10.35;3.10;;;;;;;;;;4966050;28;20473;-87
2023/07/13 07:42:26;;;;;;;6.65;3.28;;;;;;;;;;4986417;28;20041;-86
2023/07/13 07:44:52;;;;;;;8.52;3.40;;;;;;;;;;4985378;28;20048;-86
2023/07/13 07:47:18;;;;;;;10.27;3.50;;;;;;;;;;4982625;28;20044;-86
2023/07/13 07:49:44;;;;;;;9.65;3.53;;;;;;;;;;4970834;28;20038;-86
2023/07/13 07:52:10;;;;;;;6.20;3.25;;;;;;;;;;4967678;28;20060;-87
2023/07/13 07:54:36;;;;;;;9.32;3.10;;;;;;;;;;4987597;28;20037;-86
2023/07/13 07:57:02;;;;;;;8.55;2.90;;;;;;;;;;4969146;28;20038;-87
2023/07/13 07:59:29;;;;;;;8.30;3.80;;;;;;;;;;4989491;28;20045;-86
2023/07/13 08:01:55;;;;;;;10.45;3.20;;;;;;;;;;4982537;28;20057;-86
2023/07/13 08:04:21;;;;;;;8.68;3.55;;;;;;;;;;4980884;28;20513;-86
2023/07/13 08:06:47;;;;;;;10.77;3.75;;;;;;;;;;4987338;28;20037;-86
2023/07/13 08:09:13;;;;;;;7.15;3.42;;;;;;;;;;5001531;28;20045;-87
2023/07/13 08:11:39;;;;;;;8.32;3.95;;;;;;;;;;4986755;28;20042;-86
2023/07/13 08:14:05;;;;;;;11.98;4.07;;;;;;;;;;5004430;28;20053;-87
2023/07/13 08:16:32;;;;;;;8.80;3.50;;;;;;;;;;4989131;28;20083;-86
2023/07/13 08:18:58;;;;;;;7.03;3.45;;;;;;;;;;4976577;28;20052;-86
2023/07/13 08:21:24;;;;;;;8.73;4.00;;;;;;;;;;4982509;28;20041;-87
2023/07/13 08:23:51;;;;;;;9.70;3.70;;;;;;;;;;4984687;28;20049;-86
2023/07/13 08:26:17;;;;;;;9.57;3.70;;;;;;;;;;4982874;28;20049;-86
2023/07/13 08:28:43;;;;;;;10.85;3.65;;;;;;;;;;4985696;28;20041;-86
2023/07/13 08:31:09;;;;;;;10.40;3.83;;;;;;;;;;4966539;28;20160;-86
2023/07/13 08:33:35;;;;;;;9.88;3.58;;;;;;;;;;4983830;28;20039;-86
2023/07/13 08:36:02;;;;;;;14.30;4.75;;;;;;;;;;4968493;28;20114;-86
2023/07/13 08:38:28;;;;;;;10.73;4.75;;;;;;;;;;4969883;28;20030;-86
2023/07/13 08:40:55;;;;;;;10.07;3.70;;;;;;;;;;4971858;28;20053;-86
2023/07/13 08:43:23;;;;;;;12.32;4.00;;;;;;;;;;4970162;28;20459;-86
2023/07/13 08:45:51;;;;;;;10.05;3.58;;;;;;;;;;4985173;28;20037;-86
2023/07/13 08:48:27;;;;;;;8.90;3.80;;;;;;;;;;4985049;28;20056;-86
2023/07/13 08:50:56;;;;;;;11.88;3.90;;;;;;;;;;4986315;28;20050;-86
2023/07/13 08:53:23;;;;;;;10.23;3.60;;;;;;;;;;4976985;28;20033;-86
2023/07/13 08:55:49;;;;;;;12.57;4.90;;;;;;;;;;4982838;28;20065;-86
2023/07/13 08:58:16;;;;;;;11.13;5.00;;;;;;;;;;4999720;28;20045;-86
2023/07/13 09:00:48;;;;;;;8.50;3.38;;;;;;;;;;4967816;28;20053;-86
2023/07/13 09:03:20;;;;;;;10.75;3.85;;;;;;;;;;4977938;28;23211;-86
2023/07/13 09:05:48;;;;;;;5.72;2.92;;;;;;;;;;4985072;28;20049;-87
2023/07/13 09:08:20;;;;;;;7.38;2.90;;;;;;;;;;4962276;28;20073;-86
2023/07/13 09:10:47;;;;;;;6.82;3.22;;;;;;;;;;4987148;28;20038;-87
2023/07/13 09:13:31;;;;;;;7.38;3.35;;;;;;;;;;4965772;28;20049;-86
2023/07/13 09:15:58;;;;;;;6.78;3.50;;;;;;;;;;4981781;28;20041;-87
2023/07/13 09:18:41;;;;;;;5.97;3.47;;;;;;;;;;4986084;28;20046;-86
2023/07/13 09:21:12;;;;;;;6.45;3.65;;;;;;;;;;4982161;28;20045;-87
2023/07/13 09:23:38;;;;;;;7.63;3.75;;;;;;;;;;4984132;28;20423;-87
2023/07/13 09:26:21;;;;;;;8.00;4.18;;;;;;;;;;4964853;28;20046;-87
2023/07/13 09:28:52;;;;;;;7.97;4.28;;;;;;;;;;4969026;28;20042;-87
2023/07/13 09:31:20;;;;;;;6.35;3.85;;;;;;;;;;4979693;28;20480;-87
2023/07/13 09:33:46;;;;;;;;;;;;;;;;;;4987430;28;20026;-87
2023/07/13 09:36:32;;;;;;;7.10;3.90;;;;;;;;;;4996463;28;20382;-87
2023/07/13 09:39:01;;;;;;;6.05;3.60;;;;;;;;;;4996789;28;20045;-86
2023/07/13 09:41:46;;;;;;;7.05;4.15;;;;;;;;;;5003716;28;20415;-87
2023/07/13 09:44:13;;;;;;;7.82;4.40;;;;;;;;;;4975282;28;20081;-87
2023/07/13 09:46:40;;;;;;;8.52;4.40;;;;;;;;;;4983676;28;20502;-87
2023/07/13 09:49:06;;;;;;;9.48;4.60;;;;;;;;;;4963811;28;20046;-87
2023/07/13 09:51:32;;;;;;;8.77;3.88;;;;;;;;;;4982139;28;20057;-87
2023/07/13 09:53:58;;;;;;;3.88;2.28;;;;;;;;;;4960810;28;20058;-87
2023/07/13 09:56:25;;;;;;;4.10;2.40;;;;;;;;;;4982755;28;20091;-87
2023/07/13 09:58:53;;;;;;;2.50;2.28;;;;;;;;;;4970216;28;20034;-87
2023/07/13 10:01:32;;;;;;;2.78;2.20;;;;;;;;;;4967110;28;20061;-88
2023/07/13 10:03:58;;;;;;;2.13;1.90;;;;;;;;;;4980544;28;20491;-86
2023/07/13 10:06:26;;;;;;;3.35;1.70;;;;;;;;;;4963239;28;20480;-86
2023/07/13 10:08:52;;;;;;;2.72;1.95;;;;;;;;;;4969787;28;20054;-87
2023/07/13 10:11:22;;;;;;;2.72;2.00;;;;;;;;;;4966440;28;20534;-86
2023/07/13 10:13:52;;;;;;;1.85;1.70;;;;;;;;;;4981956;28;20042;-86
2023/07/13 10:16:18;;;;;;;2.47;1.77;;;;;;;;;;4966461;28;20041;-87
2023/07/13 10:18:49;;;;;;;2.97;1.90;;;;;;;;;;4966758;28;20080;-86
2023/07/13 10:21:15;;;;;;;1.90;1.40;;;;;;;;;;4963290;28;20052;-87
2023/07/13 10:23:41;;;;;;;3.05;1.73;;;;;;;;;;5001524;28;20049;-86
2023/07/13 10:26:15;;;;;;;2.72;1.65;;;;;;;;;;4964979;28;20040;-86
2023/07/13 10:28:41;;;;;;;2.05;1.75;;;;;;;;;;4967400;28;20120;-86
2023/07/13 10:31:10;;;;;;;4.07;1.88;;;;;;;;;;4959844;28;20485;-86
2023/07/13 10:33:36;;;;;;;2.60;1.92;;;;;;;;;;4983578;28;20080;-86
2023/07/13 10:36:12;;;;;;;3.45;1.70;;;;;;;;;;4997954;28;20050;-87
2023/07/13 10:38:38;;;;;;;2.78;1.67;;;;;;;;;;4983379;28;20480;-87
2023/07/13 10:41:04;;;;;;;3.33;2.15;;;;;;;;;;4963028;28;20092;-87
2023/07/13 10:43:38;;;;;;;2.35;1.85;;;;;;;;;;4984548;28;20048;-87
2023/07/13 10:46:05;;;;;;;6.30;2.00;;;;;;;;;;4962675;28;20539;-87
2023/07/13 10:48:34;;;;;;;5.13;2.00;;;;;;;;;;4967212;28;20092;-86
2023/07/13 10:51:01;;;;;;;3.17;2.00;;;;;;;;;;4980345;28;20105;-86
2023/07/13 10:53:31;;;;;;;3.97;2.80;;;;;;;;;;4960740;28;20033;-87
2023/07/13 10:56:06;;;;;;;3.17;2.75;;;;;;;;;;4974941;28;20064;-87
2023/07/13 10:58:39;;;;;;;4.32;2.80;;;;;;;;;;4981247;28;20045;-87
2023/07/13 11:01:17;;;;;;;2.97;2.47;;;;;;;;;;4970389;28;20057;-87
2023/07/13 11:03:44;;;;;;;3.80;2.72;;;;;;;;;;4969126;28;20477;-87
2023/07/13 11:06:10;;;;;;;3.13;2.70;;;;;;;;;;4985984;28;20427;-87
2023/07/13 11:08:51;;;;;;;4.22;2.95;;;;;;;;;;4985445;28;20045;-87
2023/07/13 11:11:24;;;;;;;7.18;2.92;;;;;;;;;;4974530;28;20476;-88
2023/07/13 11:13:50;;;;;;;5.95;3.00;;;;;;;;;;4986964;28;20057;-87
2023/07/13 11:16:16;;;;;;;6.90;3.00;;;;;;;;;;4988419;28;20388;-87
2023/07/13 11:18:49;;;;;;;7.25;3.88;;;;;;;;;;4987601;28;20389;-86
2023/07/13 11:21:16;;;;;;;8.15;2.80;;;;;;;;;;4982552;28;20049;-87
2023/07/13 11:23:44;;;;;;;10.60;3.33;;;;;;;;;;4993327;28;20045;-85
2023/07/13 11:26:29;;;;;;;7.82;2.97;;;;;;;;;;4997848;28;20046;-85
2023/07/13 11:28:55;;;;;;;9.35;2.78;;;;;;;;;;4998176;28;20887;-85
2023/07/13 11:31:22;;;;;;;4.50;2.53;;;;;;;;;;4989864;28;20073;-86
2023/07/13 11:33:53;;;;;;;8.50;2.60;;;;;;;;;;4972400;28;20037;-84
2023/07/13 11:36:22;;;;;;;5.05;2.58;;;;;;;;;;4985834;28;20082;-86
2023/07/13 11:38:57;;;;;;;3.80;2.60;;;;;;;;;;4988549;28;20465;-87
2023/07/13 11:41:49;;;;;;;4.85;3.17;;;;;;;;;;5007825;28;20601;-87
2023/07/13 11:44:19;;;;;;;8.00;2.85;;;;;;;;;;4994014;28;20057;-86
2023/07/13 11:46:47;;;;;;;5.68;2.92;;;;;;;;;;4986706;28;20049;-87
2023/07/13 11:49:15;;;;;;;4.03;3.35;;;;;;;;;;4998144;28;20068;-87
2023/07/13 11:51:42;;;;;;;5.88;4.40;;;;;;;;;;4970363;28;20042;-87
2023/07/13 11:54:15;;;;;;;4.70;4.20;;;;;;;;;;4967173;28;20127;-87
2023/07/13 11:56:41;;;;;;;5.03;4.13;;;;;;;;;;4992988;28;20395;-86
2023/07/13 11:59:08;;;;;;;5.10;4.00;;;;;;;;;;4967381;28;20037;-87
2023/07/13 12:01:34;;;;;;;8.75;4.85;;;;;;;;;;4987767;28;20069;-87
2023/07/13 12:04:03;;;;;;;4.15;3.50;;;;;;;;;;4963158;28;20137;-87
2023/07/13 12:06:40;;;;;;;4.13;3.10;;;;;;;;;;4989724;28;20480;-87
2023/07/13 12:09:15;;;;;;;4.38;3.20;;;;;;;;;;4966381;28;21829;-87
2023/07/13 12:11:42;;;;;;;5.80;3.00;;;;;;;;;;4991612;28;20045;-87
2023/07/13 12:14:20;;;;;;;5.20;3.28;;;;;;;;;;4969517;28;20077;-86
2023/07/13 12:16:46;;;;;;;5.10;3.20;;;;;;;;;;4968598;28;20068;-87
2023/07/13 12:19:33;;;;;;;5.75;3.55;;;;;;;;;;4988572;28;20369;-87
2023/07/13 12:22:01;;;;;;;4.20;3.20;;;;;;;;;;4980988;28;20485;-87
2023/07/13 12:24:27;;;;;;;3.70;2.95;;;;;;;;;;4981352;28;20056;-87
2023/07/13 12:27:01;;;;;;;7.35;2.95;;;;;;;;;;4987685;28;20499;-87
2023/07/13 12:29:27;;;;;;;6.05;3.08;;;;;;;;;;4981835;28;20048;-87
2023/07/13 12:31:53;;;;;;;5.40;2.90;;;;;;;;;;4990287;28;20068;-87
2023/07/13 12:34:23;;;;;;;3.33;2.60;;;;;;;;;;4973688;28;20034;-87
2023/07/13 12:36:53;;;;;;;4.63;3.00;;;;;;;;;;4986963;28;20132;-87
2023/07/13 12:39:21;;;;;;;4.43;2.63;;;;;;;;;;4994046;28;20042;-87
2023/07/13 12:41:48;;;;;;;7.35;3.08;;;;;;;;;;4968813;28;20044;-87
2023/07/13 12:44:16;;;;;;;5.80;3.03;;;;;;;;;;4960003;28;20743;-87
2023/07/13 12:46:51;;;;;;;6.35;2.97;;;;;;;;;;4991084;28;20051;-87
2023/07/13 12:49:17;;;;;;;3.97;3.03;;;;;;;;;;4992095;28;20446;-86
2023/07/13 12:51:43;;;;;;;4.80;2.25;;;;;;;;;;4969044;28;20088;-87
2023/07/13 12:54:16;;;;;;;2.83;1.65;;;;;;;;;;4971435;28;20037;-87
2023/07/13 12:56:42;;;;;;;5.25;1.60;;;;;;;;;;4967551;28;20087;-87
2023/07/13 12:59:10;;;;;;;3.60;1.70;;;;;;;;;;4989784;28;20052;-87
2023/07/13 13:01:38;;;;;;;2.88;1.80;;;;;;;;;;4991277;28;20054;-87
2023/07/13 13:04:06;;;;;;;3.65;1.50;;;;;;;;;;4985352;28;20548;-87
2023/07/13 13:06:32;;;;;;;;;;;;;;;;;;4969943;28;20531;-87
2023/07/13 13:08:59;;;;;;;2.72;1.60;;;;;;;;;;5004660;28;19921;-87
2023/07/13 13:11:25;;;;;;;4.93;1.80;;;;;;;;;;4971186;28;20125;-86
2023/07/13 13:13:52;;;;;;;2.65;1.30;;;;;;;;;;4973672;28;20080;-87
2023/07/13 13:16:21;;;;;;;3.28;1.50;;;;;;;;;;4983141;28;20037;-87
2023/07/13 13:18:47;;;;;;;2.40;1.33;;;;;;;;;;4989329;28;20030;-87
2023/07/13 13:21:13;;;;;;;2.20;1.40;;;;;;;;;;4971709;28;20050;-87
2023/07/13 13:23:39;;;;;;;3.13;1.50;;;;;;;;;;4976310;28;20045;-86
2023/07/13 13:26:09;;;;;;;3.13;1.67;;;;;;;;;;4970400;28;20042;-87
2023/07/13 13:28:35;;;;;;;1.95;1.20;;;;;;;;;;4989904;28;20128;-87
2023/07/13 13:31:01;;;;;;;4.38;1.55;;;;;;;;;;4970707;28;20045;-87
2023/07/13 13:33:27;;;;;;;6.65;1.52;;;;;;;;;;4975208;28;20128;-87
2023/07/13 13:35:53;;;;;;;3.90;1.20;;;;;;;;;;4989300;28;20049;-87
2023/07/13 13:38:26;;;;;;;3.03;1.30;;;;;;;;;;4988680;28;20116;-86
2023/07/13 13:40:52;;;;;;;2.50;1.10;;;;;;;;;;4976914;28;20048;-87
2023/07/13 13:43:19;;;;;;;3.08;1.10;;;;;;;;;;4970698;28;20917;-87
2023/07/13 13:45:47;;;;;;;3.13;1.15;;;;;;;;;;4970424;28;20176;-86
2023/07/13 13:48:17;;;;;;;2.08;1.10;;;;;;;;;;4984182;28;20042;-87
2023/07/13 13:50:46;;;;;;;2.58;0.95;;;;;;;;;;4973958;28;20041;-87
2023/07/13 13:53:13;;;;;;;4.32;1.35;;;;;;;;;;4985331;28;20048;-88
2023/07/13 13:55:41;;;;;;;4.05;1.27;;;;;;;;;;4992359;28;20499;-88
2023/07/13 13:58:08;;;;;;;2.65;1.33;;;;;;;;;;4984892;28;20045;-86
2023/07/13 14:00:34;;;;;;;4.28;1.50;;;;;;;;;;4971527;28;20061;-86
2023/07/13 14:03:00;;;;;;;2.90;1.30;;;;;;;;;;4964639;28;20103;-87
2023/07/13 14:05:26;;;;;;;2.75;1.27;;;;;;;;;;4972432;28;20052;-86
2023/07/13 14:07:53;;;;;;;1.88;1.15;;;;;;;;;;4987924;28;20140;-87
2023/07/13 14:10:22;;;;;;;3.08;0.88;;;;;;;;;;4967718;28;20485;-87
2023/07/13 14:12:49;;;;;;;5.30;1.45;;;;;;;;;;4986043;28;20034;-87
2023/07/13 14:15:20;;;;;;;3.28;1.27;;;;;;;;;;4979167;28;20041;-87
2023/07/13 14:17:49;;;;;;;2.80;1.20;;;;;;;;;;4971021;28;20091;-87
2023/07/13 14:20:15;;;;;;;3.30;1.10;;;;;;;;;;4969476;28;20041;-87
2023/07/13 14:22:44;;;;;;;3.45;1.20;;;;;;;;;;4970014;28;20056;-87
2023/07/13 14:25:14;;;;;;;4.28;1.20;;;;;;;;;;4982220;28;20509;-87
2023/07/13 14:27:42;;;;;;;3.38;1.20;;;;;;;;;;4970701;28;20081;-87
2023/07/13 14:30:15;;;;;;;3.95;1.23;;;;;;;;;;4984614;28;20428;-87
2023/07/13 14:32:41;;;;;;;2.67;1.50;;;;;;;;;;4969380;28;20037;-87
2023/07/13 14:35:17;;;;;;;2.90;1.60;;;;;;;;;;4984617;28;20037;-87
2023/07/13 14:37:43;;;;;;;3.67;1.20;;;;;;;;;;4965850;28;20038;-87
2023/07/13 14:40:29;;;;;;;3.55;1.40;;;;;;;;;;4969048;28;20480;-86
2023/07/13 14:42:55;;;;;;;2.75;1.23;;;;;;;;;;4969182;28;20444;-87